sensor_id;sensor_type;location;lat;lon;timestamp;temperature;humidity
19561;DHT22;9927;47.792;10.616;2022-11-20T04:01:40;5.90;99.90
19561;DHT22;9927;47.792;10.616;2022-11-20T04:04:14;6.10;99.90
19561;DHT22;9927;47.792;10.616;2022-11-20T04:06:41;6.20;99.90
19561;DHT22;9927;47.792;10.616;2022-11-20T04:09:08;6.30;99.90
19561;DHT22;9927;47.792;10.616;2022-11-20T04:11:37;6.30;99.90
19561;DHT22;9927;47.792;10.616;2022-11-20T04:14:13;6.10;99.90
19561;DHT22;9927;47.792;10.616;2022-11-20T04:16:40;6.00;99.90
19561;DHT22;9927;47.792;10.616;2022-11-20T04:19:12;6.20;99.90
19561;DHT22;9927;47.792;10.616;2022-11-20T04:21:40;6.30;99.90
19561;DHT22;9927;47.792;10.616;2022-11-20T04:24:08;6.30;99.90
19561;DHT22;9927;47.792;10.616;2022-11-20T04:26:35;6.30;99.90
19561;DHT22;9927;47.792;10.616;2022-11-20T04:29:02;6.40;99.90
19561;DHT22;9927;47.792;10.616;2022-11-20T04:31:33;6.30;99.90
19561;DHT22;9927;47.792;10.616;2022-11-20T04:34:02;6.40;99.90
19561;DHT22;9927;47.792;10.616;2022-11-20T04:36:30;6.20;99.90
19561;DHT22;9927;47.792;10.616;2022-11-20T04:38:59;6.30;99.90
19561;DHT22;9927;47.792;10.616;2022-11-20T04:41:32;6.10;99.90
19561;DHT22;9927;47.792;10.616;2022-11-20T04:44:01;5.90;99.90
19561;DHT22;9927;47.792;10.616;2022-11-20T04:46:42;5.90;99.90
19561;DHT22;9927;47.792;10.616;2022-11-20T04:49:10;5.90;99.90
19561;DHT22;9927;47.792;10.616;2022-11-20T04:51:38;5.90;99.90
19561;DHT22;9927;47.792;10.616;2022-11-20T04:54:05;6.00;99.90
19561;DHT22;9927;47.792;10.616;2022-11-20T04:56:33;5.90;99.90
19561;DHT22;9927;47.792;10.616;2022-11-20T04:59:01;5.90;99.90
19561;DHT22;9927;47.792;10.616;2022-11-20T05:01:28;5.80;99.90
19561;DHT22;9927;47.792;10.616;2022-11-20T05:03:56;5.90;99.90
19561;DHT22;9927;47.792;10.616;2022-11-20T05:06:23;5.90;99.90
19561;DHT22;9927;47.792;10.616;2022-11-20T05:08:50;5.90;99.90
19561;DHT22;9927;47.792;10.616;2022-11-20T05:11:20;5.90;99.90
19561;DHT22;9927;47.792;10.616;2022-11-20T05:13:48;5.80;99.90
19561;DHT22;9927;47.792;10.616;2022-11-20T05:16:18;5.70;99.90
19561;DHT22;9927;47.792;10.616;2022-11-20T05:18:46;5.80;99.90
19561;DHT22;9927;47.792;10.616;2022-11-20T05:21:13;5.80;99.90
19561;DHT22;9927;47.792;10.616;2022-11-20T05:23:42;5.70;99.90
19561;DHT22;9927;47.792;10.616;2022-11-20T05:26:20;5.70;99.90
19561;DHT22;9927;47.792;10.616;2022-11-20T05:28:51;5.60;99.90
19561;DHT22;9927;47.792;10.616;2022-11-20T05:31:21;5.60;99.90
19561;DHT22;9927;47.792;10.616;2022-11-20T05:33:55;5.60;99.90
19561;DHT22;9927;47.792;10.616;2022-11-20T05:36:22;5.50;99.90
19561;DHT22;9927;47.792;10.616;2022-11-20T05:38:50;5.50;99.90
19561;DHT22;9927;47.792;10.616;2022-11-20T05:41:22;5.50;99.90
19561;DHT22;9927;47.792;10.616;2022-11-20T05:43:50;5.50;99.90
19561;DHT22;9927;47.792;10.616;2022-11-20T05:46:20;5.30;99.90
19561;DHT22;9927;47.792;10.616;2022-11-20T05:48:55;5.30;99.90
19561;DHT22;9927;47.792;10.616;2022-11-20T05:51:23;5.20;99.90
19561;DHT22;9927;47.792;10.616;2022-11-20T05:53:50;5.20;99.90
19561;DHT22;9927;47.792;10.616;2022-11-20T05:56:19;5.30;99.90
19561;DHT22;9927;47.792;10.616;2022-11-20T05:58:47;5.20;99.90
19561;DHT22;9927;47.792;10.616;2022-11-20T06:01:18;5.30;99.90
19561;DHT22;9927;47.792;10.616;2022-11-20T06:03:46;5.20;99.90
19561;DHT22;9927;47.792;10.616;2022-11-20T06:06:15;5.30;99.90
19561;DHT22;9927;47.792;10.616;2022-11-20T06:08:43;5.30;99.90
19561;DHT22;9927;47.792;10.616;2022-11-20T06:11:12;5.20;99.90
19561;DHT22;9927;47.792;10.616;2022-11-20T06:13:40;5.30;99.90
19561;DHT22;9927;47.792;10.616;2022-11-20T06:16:10;5.30;99.90
19561;DHT22;9927;47.792;10.616;2022-11-20T06:18:37;5.30;99.90
19561;DHT22;9927;47.792;10.616;2022-11-20T06:21:10;5.20;99.90
19561;DHT22;9927;47.792;10.616;2022-11-20T06:23:37;5.20;99.90
19561;DHT22;9927;47.792;10.616;2022-11-20T06:26:11;5.30;99.90
19561;DHT22;9927;47.792;10.616;2022-11-20T06:28:38;5.30;99.90
19561;DHT22;9927;47.792;10.616;2022-11-20T06:31:06;5.30;99.90
19561;DHT22;9927;47.792;10.616;2022-11-20T06:33:34;5.30;99.90
19561;DHT22;9927;47.792;10.616;2022-11-20T06:36:01;5.10;99.90
19561;DHT22;9927;47.792;10.616;2022-11-20T06:38:36;5.10;99.90
19561;DHT22;9927;47.792;10.616;2022-11-20T06:41:05;5.10;99.90
19561;DHT22;9927;47.792;10.616;2022-11-20T06:43:32;5.20;99.90
19561;DHT22;9927;47.792;10.616;2022-11-20T06:45:59;5.30;99.90
19561;DHT22;9927;47.792;10.616;2022-11-20T06:48:27;5.40;99.90
19561;DHT22;9927;47.792;10.616;2022-11-20T06:50:55;5.40;99.90
19561;DHT22;9927;47.792;10.616;2022-11-20T06:53:24;5.40;99.90
19561;DHT22;9927;47.792;10.616;2022-11-20T06:55:51;5.50;99.90
19561;DHT22;9927;47.792;10.616;2022-11-20T06:58:19;5.50;99.90
19561;DHT22;9927;47.792;10.616;2022-11-20T07:00:46;5.60;99.90
19561;DHT22;9927;47.792;10.616;2022-11-20T07:03:13;5.60;99.90
19561;DHT22;9927;47.792;10.616;2022-11-20T07:05:40;5.70;99.90
19561;DHT22;9927;47.792;10.616;2022-11-20T07:08:08;5.70;99.90
19561;DHT22;9927;47.792;10.616;2022-11-20T07:10:35;5.70;99.90
19561;DHT22;9927;47.792;10.616;2022-11-20T07:13:03;5.70;99.90
19561;DHT22;9927;47.792;10.616;2022-11-20T07:15:30;5.50;99.90
19561;DHT22;9927;47.792;10.616;2022-11-20T07:18:00;5.50;99.90
19561;DHT22;9927;47.792;10.616;2022-11-20T07:20:28;5.50;99.90
19561;DHT22;9927;47.792;10.616;2022-11-20T07:22:56;5.50;99.90
19561;DHT22;9927;47.792;10.616;2022-11-20T07:25:24;5.40;99.90
19561;DHT22;9927;47.792;10.616;2022-11-20T07:27:52;5.60;99.90
19561;DHT22;9927;47.792;10.616;2022-11-20T07:30:19;5.60;99.90
19561;DHT22;9927;47.792;10.616;2022-11-20T07:32:47;5.70;99.90
19561;DHT22;9927;47.792;10.616;2022-11-20T07:35:17;5.80;99.90
19561;DHT22;9927;47.792;10.616;2022-11-20T07:37:44;5.90;99.90
19561;DHT22;9927;47.792;10.616;2022-11-20T07:40:13;5.90;99.90
19561;DHT22;9927;47.792;10.616;2022-11-20T07:42:54;5.90;99.90
19561;DHT22;9927;47.792;10.616;2022-11-20T07:45:23;5.80;99.90
19561;DHT22;9927;47.792;10.616;2022-11-20T07:47:51;5.80;99.90
19561;DHT22;9927;47.792;10.616;2022-11-20T07:50:19;5.90;99.90
19561;DHT22;9927;47.792;10.616;2022-11-20T07:52:46;5.90;99.90
19561;DHT22;9927;47.792;10.616;2022-11-20T07:55:14;5.90;99.90
19561;DHT22;9927;47.792;10.616;2022-11-20T07:57:41;6.10;99.90
19561;DHT22;9927;47.792;10.616;2022-11-20T08:00:10;6.10;99.90
19561;DHT22;9927;47.792;10.616;2022-11-20T08:02:41;6.00;99.90
19561;DHT22;9927;47.792;10.616;2022-11-20T08:05:09;6.20;99.90
19561;DHT22;9927;47.792;10.616;2022-11-20T08:07:37;6.20;99.90
19561;DHT22;9927;47.792;10.616;2022-11-20T08:10:06;6.20;99.90
19561;DHT22;9927;47.792;10.616;2022-11-20T08:12:34;6.30;99.90
19561;DHT22;9927;47.792;10.616;2022-11-20T08:15:20;6.30;99.90
19561;DHT22;9927;47.792;10.616;2022-11-20T08:17:47;6.30;99.90
19561;DHT22;9927;47.792;10.616;2022-11-20T08:20:35;6.20;99.90
19561;DHT22;9927;47.792;10.616;2022-11-20T08:23:04;6.20;99.90
19561;DHT22;9927;47.792;10.616;2022-11-20T08:25:36;6.30;99.90
19561;DHT22;9927;47.792;10.616;2022-11-20T08:28:08;6.30;99.90
19561;DHT22;9927;47.792;10.616;2022-11-20T08:30:47;6.40;99.90
19561;DHT22;9927;47.792;10.616;2022-11-20T08:33:14;6.40;99.90
19561;DHT22;9927;47.792;10.616;2022-11-20T08:35:41;6.50;99.90
19561;DHT22;9927;47.792;10.616;2022-11-20T08:38:09;6.70;99.90
19561;DHT22;9927;47.792;10.616;2022-11-20T08:40:37;6.80;99.90
19561;DHT22;9927;47.792;10.616;2022-11-20T08:43:04;6.80;99.90
19561;DHT22;9927;47.792;10.616;2022-11-20T08:45:31;6.90;99.90
19561;DHT22;9927;47.792;10.616;2022-11-20T08:48:02;6.70;99.90
19561;DHT22;9927;47.792;10.616;2022-11-20T08:50:30;6.90;99.90
19561;DHT22;9927;47.792;10.616;2022-11-20T08:53:04;7.00;99.90
19561;DHT22;9927;47.792;10.616;2022-11-20T08:55:31;7.20;99.90
19561;DHT22;9927;47.792;10.616;2022-11-20T08:58:03;7.20;99.90
19561;DHT22;9927;47.792;10.616;2022-11-20T09:00:30;7.10;99.90
19561;DHT22;9927;47.792;10.616;2022-11-20T09:02:57;6.90;99.90
19561;DHT22;9927;47.792;10.616;2022-11-20T09:05:25;6.90;99.90
19561;DHT22;9927;47.792;10.616;2022-11-20T09:07:59;6.90;99.90
19561;DHT22;9927;47.792;10.616;2022-11-20T09:10:27;7.00;99.90
19561;DHT22;9927;47.792;10.616;2022-11-20T09:12:55;7.00;99.90
19561;DHT22;9927;47.792;10.616;2022-11-20T09:15:23;7.00;99.90
19561;DHT22;9927;47.792;10.616;2022-11-20T09:17:58;6.90;99.90
19561;DHT22;9927;47.792;10.616;2022-11-20T09:20:27;6.90;99.90
19561;DHT22;9927;47.792;10.616;2022-11-20T09:22:56;7.10;99.90
19561;DHT22;9927;47.792;10.616;2022-11-20T09:25:24;7.10;99.90
19561;DHT22;9927;47.792;10.616;2022-11-20T09:28:00;7.10;99.90
19561;DHT22;9927;47.792;10.616;2022-11-20T09:32:55;7.20;99.90
19561;DHT22;9927;47.792;10.616;2022-11-20T09:35:22;7.20;99.90
19561;DHT22;9927;47.792;10.616;2022-11-20T09:37:49;7.30;99.90
19561;DHT22;9927;47.792;10.616;2022-11-20T09:40:26;7.30;99.90
19561;DHT22;9927;47.792;10.616;2022-11-20T09:48:26;7.20;99.90
19561;DHT22;9927;47.792;10.616;2022-11-20T09:54:06;7.50;99.90
19561;DHT22;9927;47.792;10.616;2022-11-20T09:56:42;7.60;99.90
19561;DHT22;9927;47.792;10.616;2022-11-20T09:59:50;7.70;99.90
19561;DHT22;9927;47.792;10.616;2022-11-20T10:02:35;7.70;99.90
19561;DHT22;9927;47.792;10.616;2022-11-20T10:05:15;7.30;99.90
19561;DHT22;9927;47.792;10.616;2022-11-20T10:07:55;7.40;99.90
19561;DHT22;9927;47.792;10.616;2022-11-20T10:11:37;7.40;99.90
19561;DHT22;9927;47.792;10.616;2022-11-20T10:25:18;7.30;99.90
19561;DHT22;9927;47.792;10.616;2022-11-20T10:27:58;7.30;99.90
19561;DHT22;9927;47.792;10.616;2022-11-20T10:30:27;7.40;99.90
19561;DHT22;9927;47.792;10.616;2022-11-20T10:33:19;7.70;99.90
19561;DHT22;9927;47.792;10.616;2022-11-20T10:36:05;7.70;99.90
19561;DHT22;9927;47.792;10.616;2022-11-20T10:38:41;7.70;99.90
19561;DHT22;9927;47.792;10.616;2022-11-20T10:41:21;7.70;99.90
19561;DHT22;9927;47.792;10.616;2022-11-20T10:44:05;7.80;99.90
19561;DHT22;9927;47.792;10.616;2022-11-20T10:46:43;7.90;99.90
19561;DHT22;9927;47.792;10.616;2022-11-20T10:49:16;7.90;99.90
19561;DHT22;9927;47.792;10.616;2022-11-20T10:51:59;7.90;99.90
19561;DHT22;9927;47.792;10.616;2022-11-20T10:55:06;8.00;99.90
19561;DHT22;9927;47.792;10.616;2022-11-20T11:00:39;8.10;99.90
19561;DHT22;9927;47.792;10.616;2022-11-20T11:03:23;8.10;99.90
19561;DHT22;9927;47.792;10.616;2022-11-20T11:08:45;7.70;99.90
19561;DHT22;9927;47.792;10.616;2022-11-20T11:11:24;7.70;99.90
19561;DHT22;9927;47.792;10.616;2022-11-20T11:13:52;7.80;99.90
19561;DHT22;9927;47.792;10.616;2022-11-20T11:16:21;7.80;99.90
19561;DHT22;9927;47.792;10.616;2022-11-20T11:18:49;7.80;99.90
19561;DHT22;9927;47.792;10.616;2022-11-20T11:21:24;7.90;99.90
19561;DHT22;9927;47.792;10.616;2022-11-20T11:24:01;8.10;99.90
19561;DHT22;9927;47.792;10.616;2022-11-20T11:26:57;8.30;99.90
19561;DHT22;9927;47.792;10.616;2022-11-20T11:29:25;8.40;99.90
19561;DHT22;9927;47.792;10.616;2022-11-20T11:32:08;8.30;99.90
19561;DHT22;9927;47.792;10.616;2022-11-20T11:34:35;8.20;99.90
19561;DHT22;9927;47.792;10.616;2022-11-20T11:37:03;8.30;99.90
19561;DHT22;9927;47.792;10.616;2022-11-20T11:39:33;8.20;99.90
19561;DHT22;9927;47.792;10.616;2022-11-20T11:42:01;8.40;99.90
19561;DHT22;9927;47.792;10.616;2022-11-20T11:44:31;8.30;99.90
19561;DHT22;9927;47.792;10.616;2022-11-20T11:47:30;8.50;99.90
19561;DHT22;9927;47.792;10.616;2022-11-20T12:01:00;9.10;99.90
19561;DHT22;9927;47.792;10.616;2022-11-20T12:03:36;9.20;99.90
19561;DHT22;9927;47.792;10.616;2022-11-20T12:06:11;9.50;99.90
19561;DHT22;9927;47.792;10.616;2022-11-20T12:08:42;9.60;99.90
19561;DHT22;9927;47.792;10.616;2022-11-20T12:11:12;9.30;99.90
19561;DHT22;9927;47.792;10.616;2022-11-20T12:13:54;9.30;99.90
19561;DHT22;9927;47.792;10.616;2022-11-20T12:16:22;9.50;99.90
19561;DHT22;9927;47.792;10.616;2022-11-20T12:18:52;9.20;99.90
19561;DHT22;9927;47.792;10.616;2022-11-20T12:21:36;9.30;99.90
19561;DHT22;9927;47.792;10.616;2022-11-20T12:24:35;9.50;99.90
19561;DHT22;9927;47.792;10.616;2022-11-20T12:30:17;9.60;99.90
19561;DHT22;9927;47.792;10.616;2022-11-20T12:43:24;9.20;99.90
19561;DHT22;9927;47.792;10.616;2022-11-20T12:46:24;9.20;99.90
19561;DHT22;9927;47.792;10.616;2022-11-20T12:49:12;9.00;99.90
19561;DHT22;9927;47.792;10.616;2022-11-20T12:52:06;8.80;99.90
19561;DHT22;9927;47.792;10.616;2022-11-20T13:06:37;8.60;99.90
19561;DHT22;9927;47.792;10.616;2022-11-20T13:09:08;8.70;99.90
19561;DHT22;9927;47.792;10.616;2022-11-20T13:11:42;8.70;99.90
19561;DHT22;9927;47.792;10.616;2022-11-20T13:14:37;8.40;99.90
19561;DHT22;9927;47.792;10.616;2022-11-20T13:17:14;8.20;99.90
19561;DHT22;9927;47.792;10.616;2022-11-20T13:19:53;8.00;99.90
19561;DHT22;9927;47.792;10.616;2022-11-20T13:22:44;7.80;99.90
19561;DHT22;9927;47.792;10.616;2022-11-20T13:25:40;7.60;99.90
19561;DHT22;9927;47.792;10.616;2022-11-20T13:30:52;7.50;99.90
19561;DHT22;9927;47.792;10.616;2022-11-20T13:33:32;7.60;99.90
19561;DHT22;9927;47.792;10.616;2022-11-20T13:36:19;7.60;99.90
19561;DHT22;9927;47.792;10.616;2022-11-20T13:38:50;7.50;99.90
19561;DHT22;9927;47.792;10.616;2022-11-20T13:41:35;7.30;99.90
19561;DHT22;9927;47.792;10.616;2022-11-20T13:46:43;7.40;99.90
19561;DHT22;9927;47.792;10.616;2022-11-20T13:49:32;7.30;99.90
19561;DHT22;9927;47.792;10.616;2022-11-20T13:58:05;7.40;99.90
19561;DHT22;9927;47.792;10.616;2022-11-20T14:00:44;7.50;99.90
19561;DHT22;9927;47.792;10.616;2022-11-20T14:03:18;7.40;99.90
19561;DHT22;9927;47.792;10.616;2022-11-20T14:06:29;7.60;99.90
19561;DHT22;9927;47.792;10.616;2022-11-20T14:08:58;7.60;99.90
19561;DHT22;9927;47.792;10.616;2022-11-20T14:11:27;7.60;99.90
19561;DHT22;9927;47.792;10.616;2022-11-20T14:14:13;7.60;99.90
19561;DHT22;9927;47.792;10.616;2022-11-20T14:16:40;7.40;99.90
19561;DHT22;9927;47.792;10.616;2022-11-20T14:21:48;7.50;99.90
19561;DHT22;9927;47.792;10.616;2022-11-20T14:24:20;7.60;99.90
19561;DHT22;9927;47.792;10.616;2022-11-20T14:26:50;7.70;99.90
19561;DHT22;9927;47.792;10.616;2022-11-20T14:29:20;7.60;99.90
19561;DHT22;9927;47.792;10.616;2022-11-20T14:31:51;7.60;99.90
19561;DHT22;9927;47.792;10.616;2022-11-20T14:34:25;7.50;99.90
19561;DHT22;9927;47.792;10.616;2022-11-20T14:37:02;7.40;99.90
19561;DHT22;9927;47.792;10.616;2022-11-20T14:39:34;7.30;99.90
19561;DHT22;9927;47.792;10.616;2022-11-20T14:42:10;7.30;99.90
19561;DHT22;9927;47.792;10.616;2022-11-20T14:44:42;7.30;99.90
19561;DHT22;9927;47.792;10.616;2022-11-20T14:47:12;7.40;99.90
19561;DHT22;9927;47.792;10.616;2022-11-20T14:49:40;7.30;99.90
19561;DHT22;9927;47.792;10.616;2022-11-20T14:52:19;7.20;99.90
19561;DHT22;9927;47.792;10.616;2022-11-20T14:54:47;7.10;99.90
19561;DHT22;9927;47.792;10.616;2022-11-20T14:57:31;7.10;99.90
19561;DHT22;9927;47.792;10.616;2022-11-20T15:02:43;7.00;99.90
19561;DHT22;9927;47.792;10.616;2022-11-20T15:05:10;7.00;99.90
19561;DHT22;9927;47.792;10.616;2022-11-20T15:07:43;6.80;99.90
19561;DHT22;9927;47.792;10.616;2022-11-20T15:10:23;6.80;99.90
19561;DHT22;9927;47.792;10.616;2022-11-20T15:12:53;6.80;99.90
19561;DHT22;9927;47.792;10.616;2022-11-20T15:17:53;6.70;99.90
19561;DHT22;9927;47.792;10.616;2022-11-20T15:20:22;6.80;99.90
19561;DHT22;9927;47.792;10.616;2022-11-20T15:22:50;6.70;99.90
19561;DHT22;9927;47.792;10.616;2022-11-20T15:25:18;6.70;99.90
19561;DHT22;9927;47.792;10.616;2022-11-20T15:27:45;6.70;99.90
19561;DHT22;9927;47.792;10.616;2022-11-20T15:30:18;6.60;99.90
19561;DHT22;9927;47.792;10.616;2022-11-20T15:32:47;6.50;99.90
19561;DHT22;9927;47.792;10.616;2022-11-20T15:35:15;6.40;99.90
19561;DHT22;9927;47.792;10.616;2022-11-20T15:37:42;6.40;99.90
19561;DHT22;9927;47.792;10.616;2022-11-20T15:40:10;6.40;99.90
19561;DHT22;9927;47.792;10.616;2022-11-20T15:42:37;6.40;99.90
19561;DHT22;9927;47.792;10.616;2022-11-20T15:45:05;6.40;99.90
19561;DHT22;9927;47.792;10.616;2022-11-20T15:47:34;6.40;99.90
19561;DHT22;9927;47.792;10.616;2022-11-20T15:50:02;6.30;99.90
19561;DHT22;9927;47.792;10.616;2022-11-20T15:52:29;6.20;99.90
19561;DHT22;9927;47.792;10.616;2022-11-20T15:55:10;6.20;99.90
19561;DHT22;9927;47.792;10.616;2022-11-20T15:57:37;6.10;99.90
19561;DHT22;9927;47.792;10.616;2022-11-20T16:00:05;6.10;99.90
19561;DHT22;9927;47.792;10.616;2022-11-20T16:02:32;6.00;99.90
19561;DHT22;9927;47.792;10.616;2022-11-20T16:05:00;6.00;99.90
19561;DHT22;9927;47.792;10.616;2022-11-20T16:09:55;5.90;99.90
19561;DHT22;9927;47.792;10.616;2022-11-20T16:12:23;5.90;99.90
19561;DHT22;9927;47.792;10.616;2022-11-20T16:15:09;5.80;99.90
19561;DHT22;9927;47.792;10.616;2022-11-20T16:17:55;5.80;99.90
19561;DHT22;9927;47.792;10.616;2022-11-20T16:20:22;5.70;99.90
19561;DHT22;9927;47.792;10.616;2022-11-20T16:22:49;5.70;99.90
19561;DHT22;9927;47.792;10.616;2022-11-20T16:25:16;5.70;99.90
19561;DHT22;9927;47.792;10.616;2022-11-20T16:27:44;5.60;99.90
19561;DHT22;9927;47.792;10.616;2022-11-20T16:30:11;5.60;99.90
19561;DHT22;9927;47.792;10.616;2022-11-20T16:32:38;5.50;99.90
19561;DHT22;9927;47.792;10.616;2022-11-20T16:35:06;5.50;99.90
19561;DHT22;9927;47.792;10.616;2022-11-20T16:37:34;5.50;99.90
19561;DHT22;9927;47.792;10.616;2022-11-20T16:40:01;5.40;99.90
19561;DHT22;9927;47.792;10.616;2022-11-20T16:42:35;5.30;99.90
19561;DHT22;9927;47.792;10.616;2022-11-20T16:45:03;5.20;99.90
19561;DHT22;9927;47.792;10.616;2022-11-20T16:47:34;5.20;99.90
19561;DHT22;9927;47.792;10.616;2022-11-20T16:50:02;5.20;99.90
19561;DHT22;9927;47.792;10.616;2022-11-20T16:52:30;5.10;99.90
19561;DHT22;9927;47.792;10.616;2022-11-20T16:54:58;5.20;99.90
19561;DHT22;9927;47.792;10.616;2022-11-20T16:57:27;5.30;99.90
19561;DHT22;9927;47.792;10.616;2022-11-20T16:59:55;5.30;99.90
19561;DHT22;9927;47.792;10.616;2022-11-20T17:02:28;5.30;99.90
19561;DHT22;9927;47.792;10.616;2022-11-20T17:04:55;5.30;99.90
19561;DHT22;9927;47.792;10.616;2022-11-20T17:07:22;5.30;99.90
19561;DHT22;9927;47.792;10.616;2022-11-20T17:09:49;5.30;99.90
19561;DHT22;9927;47.792;10.616;2022-11-20T17:12:17;5.30;99.90
19561;DHT22;9927;47.792;10.616;2022-11-20T17:14:44;5.30;99.90
19561;DHT22;9927;47.792;10.616;2022-11-20T17:17:11;5.30;99.90
19561;DHT22;9927;47.792;10.616;2022-11-20T17:19:38;5.40;99.90
19561;DHT22;9927;47.792;10.616;2022-11-20T17:22:05;5.30;99.90
19561;DHT22;9927;47.792;10.616;2022-11-20T17:24:33;5.30;99.90
19561;DHT22;9927;47.792;10.616;2022-11-20T17:27:00;5.30;99.90
19561;DHT22;9927;47.792;10.616;2022-11-20T17:29:27;5.30;99.90
19561;DHT22;9927;47.792;10.616;2022-11-20T17:31:55;5.30;99.90
19561;DHT22;9927;47.792;10.616;2022-11-20T17:34:22;5.30;99.90
19561;DHT22;9927;47.792;10.616;2022-11-20T17:36:49;5.40;99.90
19561;DHT22;9927;47.792;10.616;2022-11-20T17:39:17;5.40;99.90
19561;DHT22;9927;47.792;10.616;2022-11-20T17:41:44;5.40;99.90
19561;DHT22;9927;47.792;10.616;2022-11-20T17:44:32;5.30;99.90
19561;DHT22;9927;47.792;10.616;2022-11-20T17:46:59;5.20;99.90
19561;DHT22;9927;47.792;10.616;2022-11-20T17:49:27;5.20;99.90
19561;DHT22;9927;47.792;10.616;2022-11-20T17:51:54;5.20;99.90
19561;DHT22;9927;47.792;10.616;2022-11-20T17:54:21;5.20;99.90
19561;DHT22;9927;47.792;10.616;2022-11-20T17:56:49;5.20;99.90
19561;DHT22;9927;47.792;10.616;2022-11-20T17:59:42;5.30;99.90
19561;DHT22;9927;47.792;10.616;2022-11-20T18:02:09;5.30;99.90
19561;DHT22;9927;47.792;10.616;2022-11-20T18:04:37;5.20;99.90
19561;DHT22;9927;47.792;10.616;2022-11-20T18:07:04;5.30;99.90
19561;DHT22;9927;47.792;10.616;2022-11-20T18:09:31;5.30;99.90
19561;DHT22;9927;47.792;10.616;2022-11-20T18:11:58;5.40;99.90
19561;DHT22;9927;47.792;10.616;2022-11-20T18:32:21;5.40;99.90
19561;DHT22;9927;47.792;10.616;2022-11-20T18:34:49;5.30;99.90
19561;DHT22;9927;47.792;10.616;2022-11-20T18:37:16;5.20;99.90
19561;DHT22;9927;47.792;10.616;2022-11-20T18:39:44;5.10;99.90
19561;DHT22;9927;47.792;10.616;2022-11-20T18:42:13;5.10;99.90
19561;DHT22;9927;47.792;10.616;2022-11-20T18:44:59;5.20;99.90
19561;DHT22;9927;47.792;10.616;2022-11-20T18:47:30;5.20;99.90
19561;DHT22;9927;47.792;10.616;2022-11-20T18:49:59;5.30;99.90
19561;DHT22;9927;47.792;10.616;2022-11-20T18:52:32;5.30;99.90
19561;DHT22;9927;47.792;10.616;2022-11-20T18:55:01;5.40;99.90
19561;DHT22;9927;47.792;10.616;2022-11-20T18:57:29;5.40;99.90
19561;DHT22;9927;47.792;10.616;2022-11-20T18:59:56;5.40;99.90
19561;DHT22;9927;47.792;10.616;2022-11-20T19:02:34;5.40;99.90
19561;DHT22;9927;47.792;10.616;2022-11-20T19:05:10;5.30;99.90
19561;DHT22;9927;47.792;10.616;2022-11-20T19:07:37;5.40;99.90
19561;DHT22;9927;47.792;10.616;2022-11-20T19:10:06;5.40;99.90
19561;DHT22;9927;47.792;10.616;2022-11-20T19:12:33;5.40;99.90
19561;DHT22;9927;47.792;10.616;2022-11-20T19:15:01;5.30;99.90
19561;DHT22;9927;47.792;10.616;2022-11-20T19:17:28;5.30;99.90
19561;DHT22;9927;47.792;10.616;2022-11-20T19:19:55;5.20;99.90
19561;DHT22;9927;47.792;10.616;2022-11-20T19:22:22;5.20;99.90
19561;DHT22;9927;47.792;10.616;2022-11-20T19:24:51;5.10;99.90
19561;DHT22;9927;47.792;10.616;2022-11-20T19:27:18;5.10;99.90
19561;DHT22;9927;47.792;10.616;2022-11-20T19:29:45;5.10;99.90
19561;DHT22;9927;47.792;10.616;2022-11-20T19:32:12;5.10;99.90
19561;DHT22;9927;47.792;10.616;2022-11-20T19:34:40;5.10;99.90
19561;DHT22;9927;47.792;10.616;2022-11-20T19:37:07;5.20;99.90
19561;DHT22;9927;47.792;10.616;2022-11-20T19:39:35;5.30;99.90
19561;DHT22;9927;47.792;10.616;2022-11-20T19:42:03;5.30;99.90
19561;DHT22;9927;47.792;10.616;2022-11-20T19:44:30;5.30;99.90
19561;DHT22;9927;47.792;10.616;2022-11-20T19:46:59;5.10;99.90
19561;DHT22;9927;47.792;10.616;2022-11-20T19:49:28;4.90;99.90
19561;DHT22;9927;47.792;10.616;2022-11-20T19:51:55;4.90;99.90
19561;DHT22;9927;47.792;10.616;2022-11-20T19:54:22;4.90;99.90
19561;DHT22;9927;47.792;10.616;2022-11-20T19:56:50;5.00;99.90
19561;DHT22;9927;47.792;10.616;2022-11-20T19:59:17;5.00;99.90
19561;DHT22;9927;47.792;10.616;2022-11-20T20:01:44;4.90;99.90
19561;DHT22;9927;47.792;10.616;2022-11-20T20:04:11;4.90;99.90
19561;DHT22;9927;47.792;10.616;2022-11-20T20:06:39;4.80;99.90
19561;DHT22;9927;47.792;10.616;2022-11-20T20:09:10;4.80;99.90
19561;DHT22;9927;47.792;10.616;2022-11-20T20:11:39;4.90;99.90
19561;DHT22;9927;47.792;10.616;2022-11-20T20:14:09;5.00;99.90
19561;DHT22;9927;47.792;10.616;2022-11-20T20:16:40;5.00;99.90
19561;DHT22;9927;47.792;10.616;2022-11-20T20:19:10;5.10;99.90
19561;DHT22;9927;47.792;10.616;2022-11-20T20:21:38;5.10;99.90
19561;DHT22;9927;47.792;10.616;2022-11-20T20:24:08;5.10;99.90
19561;DHT22;9927;47.792;10.616;2022-11-20T20:26:35;5.00;99.90
19561;DHT22;9927;47.792;10.616;2022-11-20T20:29:03;5.10;99.90
19561;DHT22;9927;47.792;10.616;2022-11-20T20:31:31;5.10;99.90
19561;DHT22;9927;47.792;10.616;2022-11-20T20:34:00;5.10;99.90
19561;DHT22;9927;47.792;10.616;2022-11-20T20:36:29;5.30;99.90
19561;DHT22;9927;47.792;10.616;2022-11-20T20:38:57;5.30;99.90
19561;DHT22;9927;47.792;10.616;2022-11-20T20:41:31;5.30;99.90
19561;DHT22;9927;47.792;10.616;2022-11-20T20:43:58;5.30;99.90
19561;DHT22;9927;47.792;10.616;2022-11-20T20:46:45;5.30;99.90
19561;DHT22;9927;47.792;10.616;2022-11-20T20:49:12;5.40;99.90
19561;DHT22;9927;47.792;10.616;2022-11-20T20:51:39;5.40;99.90
19561;DHT22;9927;47.792;10.616;2022-11-20T20:54:07;5.50;99.90
19561;DHT22;9927;47.792;10.616;2022-11-20T20:56:34;5.60;99.90
19561;DHT22;9927;47.792;10.616;2022-11-20T20:59:02;5.50;99.90
19561;DHT22;9927;47.792;10.616;2022-11-20T21:01:30;5.60;99.90
19561;DHT22;9927;47.792;10.616;2022-11-20T21:03:57;5.70;99.90
19561;DHT22;9927;47.792;10.616;2022-11-20T21:06:25;5.70;99.90
19561;DHT22;9927;47.792;10.616;2022-11-20T21:08:52;5.70;99.90
19561;DHT22;9927;47.792;10.616;2022-11-20T21:11:20;5.70;99.90
19561;DHT22;9927;47.792;10.616;2022-11-20T21:13:47;5.60;99.90
19561;DHT22;9927;47.792;10.616;2022-11-20T21:16:16;5.70;99.90
19561;DHT22;9927;47.792;10.616;2022-11-20T21:18:44;5.70;99.90
19561;DHT22;9927;47.792;10.616;2022-11-20T21:21:13;5.70;99.90
19561;DHT22;9927;47.792;10.616;2022-11-20T21:24:00;5.70;99.90
19561;DHT22;9927;47.792;10.616;2022-11-20T21:26:27;5.50;99.90
19561;DHT22;9927;47.792;10.616;2022-11-20T21:28:56;5.50;99.90
19561;DHT22;9927;47.792;10.616;2022-11-20T21:31:24;5.50;99.90
19561;DHT22;9927;47.792;10.616;2022-11-20T21:33:54;5.50;99.90
19561;DHT22;9927;47.792;10.616;2022-11-20T21:36:26;5.40;99.90
19561;DHT22;9927;47.792;10.616;2022-11-20T21:38:55;5.30;99.90
19561;DHT22;9927;47.792;10.616;2022-11-20T21:41:24;5.00;99.90
19561;DHT22;9927;47.792;10.616;2022-11-20T21:43:52;5.00;99.90
19561;DHT22;9927;47.792;10.616;2022-11-20T21:46:42;5.00;99.90
19561;DHT22;9927;47.792;10.616;2022-11-20T21:49:09;5.00;99.90
19561;DHT22;9927;47.792;10.616;2022-11-20T21:51:37;5.00;99.90
19561;DHT22;9927;47.792;10.616;2022-11-20T21:54:04;5.00;99.90
19561;DHT22;9927;47.792;10.616;2022-11-20T21:56:31;4.90;99.90